Terminal Aerodrome Forecast
Issued by NWS

Current Version | Previous Version | Text Only | Print | Product List | Glossary On
Versions: 1 2 3 4 5 6 7 8 9 10 11 12 13 14
845
FTUS41 KPBZ 231723
TAFLBE
TAF
KLBE 231723Z 2318/2418 14010G20KT P6SM FEW250
     FM240000 13009KT P6SM BKN120
     FM241100 13010G19KT P6SM -SHRA OVC060
     FM241600 12012G22KT P6SM SHRA OVC015=

USA.gov is the U.S. government's official web portal to all federal, state and local government web resources and services.